sensor_id;sensor_type;location;lat;lon;timestamp;pressure;altitude;pressure_sealevel;temperature;humidity
37904;BME280;23738;50.422;18.758;2023-05-09T00:00:37;99555.50;;;4.05;60.20
37904;BME280;23738;50.422;18.758;2023-05-09T00:03:07;99554.79;;;4.03;60.52
37904;BME280;23738;50.422;18.758;2023-05-09T00:05:37;99550.55;;;4.00;60.56
37904;BME280;23738;50.422;18.758;2023-05-09T00:08:06;99549.27;;;3.97;60.53
37904;BME280;23738;50.422;18.758;2023-05-09T00:10:56;99543.59;;;3.88;60.62
37904;BME280;23738;50.422;18.758;2023-05-09T00:13:25;99545.80;;;3.82;60.85
37904;BME280;23738;50.422;18.758;2023-05-09T00:15:55;99543.30;;;3.77;60.88
37904;BME280;23738;50.422;18.758;2023-05-09T00:18:25;99542.06;;;3.71;60.84
37904;BME280;23738;50.422;18.758;2023-05-09T00:20:55;99538.63;;;3.66;60.85
37904;BME280;23738;50.422;18.758;2023-05-09T00:23:45;99541.48;;;3.64;60.74
37904;BME280;23738;50.422;18.758;2023-05-09T00:26:50;99539.15;;;3.59;60.92
37904;BME280;23738;50.422;18.758;2023-05-09T00:29:20;99534.54;;;3.54;60.63
37904;BME280;23738;50.422;18.758;2023-05-09T00:32:09;99537.42;;;3.54;60.64
37904;BME280;23738;50.422;18.758;2023-05-09T00:34:58;99536.02;;;3.55;60.71
37904;BME280;23738;50.422;18.758;2023-05-09T00:37:29;99530.45;;;3.57;61.00
37904;BME280;23738;50.422;18.758;2023-05-09T00:39:59;99529.23;;;3.59;61.26
37904;BME280;23738;50.422;18.758;2023-05-09T00:42:36;99528.01;;;3.57;61.36
37904;BME280;23738;50.422;18.758;2023-05-09T00:45:07;99527.21;;;3.54;61.34
37904;BME280;23738;50.422;18.758;2023-05-09T00:47:38;99525.56;;;3.51;61.55
37904;BME280;23738;50.422;18.758;2023-05-09T00:50:09;99522.38;;;3.47;61.32
37904;BME280;23738;50.422;18.758;2023-05-09T00:52:39;99521.14;;;3.43;61.45
37904;BME280;23738;50.422;18.758;2023-05-09T00:55:29;99518.41;;;3.40;61.66
37904;BME280;23738;50.422;18.758;2023-05-09T00:58:19;99517.89;;;3.36;61.77
37904;BME280;23738;50.422;18.758;2023-05-09T01:01:18;99515.02;;;3.31;61.50
37904;BME280;23738;50.422;18.758;2023-05-09T01:03:48;99509.29;;;3.25;61.72
37904;BME280;23738;50.422;18.758;2023-05-09T01:06:23;99509.86;;;3.20;61.76
37904;BME280;23738;50.422;18.758;2023-05-09T01:09:00;99507.82;;;3.16;61.73
37904;BME280;23738;50.422;18.758;2023-05-09T01:11:33;99511.51;;;3.17;61.58
37904;BME280;23738;50.422;18.758;2023-05-09T01:14:14;99507.28;;;3.18;61.70
37904;BME280;23738;50.422;18.758;2023-05-09T01:16:48;99505.31;;;3.18;61.67
37904;BME280;23738;50.422;18.758;2023-05-09T01:19:42;99504.84;;;3.22;61.88
37904;BME280;23738;50.422;18.758;2023-05-09T01:22:20;99504.24;;;3.21;61.78
37904;BME280;23738;50.422;18.758;2023-05-09T01:25:05;99499.63;;;3.18;62.03
37904;BME280;23738;50.422;18.758;2023-05-09T01:27:41;99502.73;;;3.16;62.29
37904;BME280;23738;50.422;18.758;2023-05-09T01:30:36;99500.55;;;3.11;62.26
37904;BME280;23738;50.422;18.758;2023-05-09T01:33:26;99497.84;;;3.04;62.23
37904;BME280;23738;50.422;18.758;2023-05-09T01:36:20;99491.50;;;2.96;62.36
37904;BME280;23738;50.422;18.758;2023-05-09T01:39:13;99494.64;;;2.92;62.50
37904;BME280;23738;50.422;18.758;2023-05-09T01:42:23;99497.27;;;2.88;62.45
37904;BME280;23738;50.422;18.758;2023-05-09T01:45:14;99495.36;;;2.84;62.37
37904;BME280;23738;50.422;18.758;2023-05-09T01:48:45;99493.23;;;2.82;62.19
37904;BME280;23738;50.422;18.758;2023-05-09T01:51:54;99494.09;;;2.82;62.20
37904;BME280;23738;50.422;18.758;2023-05-09T01:55:24;99491.11;;;2.85;62.08
37904;BME280;23738;50.422;18.758;2023-05-09T01:58:37;99489.50;;;2.85;62.43
37904;BME280;23738;50.422;18.758;2023-05-09T02:01:28;99490.70;;;2.83;62.68
37904;BME280;23738;50.422;18.758;2023-05-09T02:04:57;99490.16;;;2.79;62.54
37904;BME280;23738;50.422;18.758;2023-05-09T02:08:26;99488.29;;;2.75;62.52
37904;BME280;23738;50.422;18.758;2023-05-09T02:11:55;99487.23;;;2.69;62.73
37904;BME280;23738;50.422;18.758;2023-05-09T02:15:05;99490.52;;;2.62;62.65
37904;BME280;23738;50.422;18.758;2023-05-09T02:17:58;99489.79;;;2.57;62.61
37904;BME280;23738;50.422;18.758;2023-05-09T02:21:29;99488.16;;;2.49;62.77
37904;BME280;23738;50.422;18.758;2023-05-09T02:24:19;99480.77;;;2.42;62.67
37904;BME280;23738;50.422;18.758;2023-05-09T02:26:48;99477.27;;;2.37;62.80
37904;BME280;23738;50.422;18.758;2023-05-09T02:29:21;99482.52;;;2.42;62.91
37904;BME280;23738;50.422;18.758;2023-05-09T02:32:18;99479.44;;;2.43;63.16
37904;BME280;23738;50.422;18.758;2023-05-09T02:35:13;99474.56;;;2.47;62.85
37904;BME280;23738;50.422;18.758;2023-05-09T02:37:44;99471.83;;;2.49;63.25
37904;BME280;23738;50.422;18.758;2023-05-09T02:40:34;99471.65;;;2.53;63.35
37904;BME280;23738;50.422;18.758;2023-05-09T02:44:03;99468.51;;;2.51;63.63
37904;BME280;23738;50.422;18.758;2023-05-09T02:47:52;99469.90;;;2.51;63.78
37904;BME280;23738;50.422;18.758;2023-05-09T02:50:41;99472.42;;;2.48;63.30
37904;BME280;23738;50.422;18.758;2023-05-09T02:53:11;99473.91;;;2.45;63.89
37904;BME280;23738;50.422;18.758;2023-05-09T02:56:01;99479.48;;;2.42;63.88
37904;BME280;23738;50.422;18.758;2023-05-09T02:58:39;99477.90;;;2.41;63.55
37904;BME280;23738;50.422;18.758;2023-05-09T03:01:29;99476.52;;;2.38;63.56
37904;BME280;23738;50.422;18.758;2023-05-09T03:04:58;99484.66;;;2.43;63.34
37904;BME280;23738;50.422;18.758;2023-05-09T03:07:48;99480.27;;;2.48;63.66
37904;BME280;23738;50.422;18.758;2023-05-09T03:10:38;99475.65;;;2.47;63.80
37904;BME280;23738;50.422;18.758;2023-05-09T03:13:08;99476.77;;;2.48;63.64
37904;BME280;23738;50.422;18.758;2023-05-09T03:15:58;99461.67;;;2.41;63.96
37904;BME280;23738;50.422;18.758;2023-05-09T03:19:28;99468.05;;;2.46;64.03
37904;BME280;23738;50.422;18.758;2023-05-09T03:22:38;99470.95;;;2.45;64.23
37904;BME280;23738;50.422;18.758;2023-05-09T03:25:55;99465.65;;;2.42;64.24
37904;BME280;23738;50.422;18.758;2023-05-09T03:28:24;99466.26;;;2.41;64.29
37904;BME280;23738;50.422;18.758;2023-05-09T03:30:54;99460.46;;;2.37;64.45
37904;BME280;23738;50.422;18.758;2023-05-09T03:33:24;99457.35;;;2.35;64.71
37904;BME280;23738;50.422;18.758;2023-05-09T03:36:11;99464.75;;;2.36;64.29
37904;BME280;23738;50.422;18.758;2023-05-09T03:38:44;99465.41;;;2.38;64.24
37904;BME280;23738;50.422;18.758;2023-05-09T03:41:34;99466.75;;;2.43;64.58
37904;BME280;23738;50.422;18.758;2023-05-09T03:44:38;99469.54;;;2.51;64.75
37904;BME280;23738;50.422;18.758;2023-05-09T03:47:27;99471.05;;;2.54;64.90
37904;BME280;23738;50.422;18.758;2023-05-09T03:53:52;99468.02;;;2.65;65.35
37904;BME280;23738;50.422;18.758;2023-05-09T03:56:44;99467.35;;;2.67;65.49
37904;BME280;23738;50.422;18.758;2023-05-09T04:00:14;99469.91;;;2.67;65.27
37904;BME280;23738;50.422;18.758;2023-05-09T04:03:25;99471.88;;;2.69;65.48
37904;BME280;23738;50.422;18.758;2023-05-09T04:05:54;99467.69;;;2.72;65.47
37904;BME280;23738;50.422;18.758;2023-05-09T04:08:24;99467.64;;;2.80;65.81
37904;BME280;23738;50.422;18.758;2023-05-09T04:10:53;99470.27;;;2.94;65.88
37904;BME280;23738;50.422;18.758;2023-05-09T04:13:23;99477.39;;;3.09;66.29
37904;BME280;23738;50.422;18.758;2023-05-09T04:15:52;99472.09;;;3.22;66.61
37904;BME280;23738;50.422;18.758;2023-05-09T04:18:22;99474.13;;;3.41;66.80
37904;BME280;23738;50.422;18.758;2023-05-09T04:20:52;99474.60;;;3.60;67.18
37904;BME280;23738;50.422;18.758;2023-05-09T04:24:01;99473.41;;;3.81;67.27
37904;BME280;23738;50.422;18.758;2023-05-09T04:27:30;99465.66;;;4.02;67.70
37904;BME280;23738;50.422;18.758;2023-05-09T04:30:39;99461.17;;;4.21;67.54
37904;BME280;23738;50.422;18.758;2023-05-09T04:33:29;99466.80;;;4.45;67.44
37904;BME280;23738;50.422;18.758;2023-05-09T04:36:18;99465.90;;;4.71;67.79
37904;BME280;23738;50.422;18.758;2023-05-09T04:38:57;99460.55;;;4.89;67.78
37904;BME280;23738;50.422;18.758;2023-05-09T04:41:46;99455.86;;;5.10;67.82
37904;BME280;23738;50.422;18.758;2023-05-09T04:44:36;99452.48;;;5.29;68.32
37904;BME280;23738;50.422;18.758;2023-05-09T04:47:06;99447.48;;;5.45;68.14
37904;BME280;23738;50.422;18.758;2023-05-09T04:49:35;99450.49;;;5.63;68.14
37904;BME280;23738;50.422;18.758;2023-05-09T04:52:25;99448.73;;;5.81;68.29
37904;BME280;23738;50.422;18.758;2023-05-09T04:55:52;99448.23;;;6.06;68.14
37904;BME280;23738;50.422;18.758;2023-05-09T04:59:01;99448.86;;;6.30;68.17
37904;BME280;23738;50.422;18.758;2023-05-09T05:01:51;99445.75;;;6.53;68.30
37904;BME280;23738;50.422;18.758;2023-05-09T05:04:21;99447.91;;;6.76;68.55
37904;BME280;23738;50.422;18.758;2023-05-09T05:06:50;99443.58;;;6.92;68.85
37904;BME280;23738;50.422;18.758;2023-05-09T05:09:39;99440.01;;;7.08;68.74
37904;BME280;23738;50.422;18.758;2023-05-09T05:12:49;99437.02;;;7.27;68.29
37904;BME280;23738;50.422;18.758;2023-05-09T05:15:38;99442.41;;;7.46;68.28
37904;BME280;23738;50.422;18.758;2023-05-09T05:18:36;99445.38;;;7.70;67.96
37904;BME280;23738;50.422;18.758;2023-05-09T05:21:05;99448.44;;;7.92;68.30
37904;BME280;23738;50.422;18.758;2023-05-09T05:24:12;99444.73;;;8.13;68.10
37904;BME280;23738;50.422;18.758;2023-05-09T05:26:41;99444.34;;;8.28;67.79
37904;BME280;23738;50.422;18.758;2023-05-09T05:30:12;99442.93;;;8.43;67.50
37904;BME280;23738;50.422;18.758;2023-05-09T05:33:10;99436.75;;;8.61;67.44
37904;BME280;23738;50.422;18.758;2023-05-09T05:35:59;99440.80;;;8.72;67.04
37904;BME280;23738;50.422;18.758;2023-05-09T05:38:28;99437.59;;;8.82;67.20
37904;BME280;23738;50.422;18.758;2023-05-09T05:40:58;99435.43;;;8.97;66.92
37904;BME280;23738;50.422;18.758;2023-05-09T05:43:47;99433.63;;;9.13;66.78
37904;BME280;23738;50.422;18.758;2023-05-09T05:46:16;99430.83;;;9.28;66.59
37904;BME280;23738;50.422;18.758;2023-05-09T05:48:46;99426.80;;;9.42;66.59
37904;BME280;23738;50.422;18.758;2023-05-09T05:51:15;99432.94;;;9.58;66.21
37904;BME280;23738;50.422;18.758;2023-05-09T05:53:45;99426.70;;;9.72;66.27
37904;BME280;23738;50.422;18.758;2023-05-09T05:56:34;99423.40;;;9.86;66.08
37904;BME280;23738;50.422;18.758;2023-05-09T05:59:03;99421.91;;;10.08;66.05
37904;BME280;23738;50.422;18.758;2023-05-09T06:01:33;99416.45;;;10.21;65.41
37904;BME280;23738;50.422;18.758;2023-05-09T06:04:03;99414.21;;;10.34;65.28
37904;BME280;23738;50.422;18.758;2023-05-09T06:06:32;99409.15;;;10.49;65.21
37904;BME280;23738;50.422;18.758;2023-05-09T06:09:02;99406.90;;;10.62;64.94
37904;BME280;23738;50.422;18.758;2023-05-09T06:11:31;99405.76;;;10.76;64.99
37904;BME280;23738;50.422;18.758;2023-05-09T06:14:01;99415.59;;;10.94;64.66
37904;BME280;23738;50.422;18.758;2023-05-09T06:16:30;99417.05;;;11.10;64.39
37904;BME280;23738;50.422;18.758;2023-05-09T06:18:59;99409.88;;;11.22;63.88
37904;BME280;23738;50.422;18.758;2023-05-09T06:21:29;99403.73;;;11.36;63.90
37904;BME280;23738;50.422;18.758;2023-05-09T06:23:58;99401.98;;;11.48;63.12
37904;BME280;23738;50.422;18.758;2023-05-09T06:26:49;99396.61;;;11.59;63.00
37904;BME280;23738;50.422;18.758;2023-05-09T06:29:56;99394.30;;;11.78;63.28
37904;BME280;23738;50.422;18.758;2023-05-09T06:32:58;99384.22;;;11.97;62.88
37904;BME280;23738;50.422;18.758;2023-05-09T06:35:47;99388.94;;;12.15;61.98
37904;BME280;23738;50.422;18.758;2023-05-09T06:38:37;99388.78;;;12.33;61.92
37904;BME280;23738;50.422;18.758;2023-05-09T06:41:19;99388.02;;;12.43;59.87
37904;BME280;23738;50.422;18.758;2023-05-09T06:43:48;99379.40;;;12.41;58.96
37904;BME280;23738;50.422;18.758;2023-05-09T06:46:18;99382.11;;;12.45;59.90
37904;BME280;23738;50.422;18.758;2023-05-09T06:49:07;99379.23;;;12.58;60.75
37904;BME280;23738;50.422;18.758;2023-05-09T06:51:45;99375.59;;;12.74;59.63
37904;BME280;23738;50.422;18.758;2023-05-09T06:54:14;99373.29;;;12.82;58.82
37904;BME280;23738;50.422;18.758;2023-05-09T06:56:50;99368.80;;;12.90;58.74
37904;BME280;23738;50.422;18.758;2023-05-09T06:59:19;99366.13;;;12.98;57.90
37904;BME280;23738;50.422;18.758;2023-05-09T07:02:05;99357.67;;;12.97;58.00
37904;BME280;23738;50.422;18.758;2023-05-09T07:04:35;99350.25;;;13.04;58.74
37904;BME280;23738;50.422;18.758;2023-05-09T07:07:05;99358.34;;;13.24;58.04
37904;BME280;23738;50.422;18.758;2023-05-09T07:09:34;99357.17;;;13.34;57.30
37904;BME280;23738;50.422;18.758;2023-05-09T07:12:04;99354.69;;;13.44;57.39
37904;BME280;23738;50.422;18.758;2023-05-09T07:14:34;99360.92;;;13.59;57.72
37904;BME280;23738;50.422;18.758;2023-05-09T07:17:23;99359.48;;;13.72;57.28
37904;BME280;23738;50.422;18.758;2023-05-09T07:19:53;99350.39;;;13.91;57.90
37904;BME280;23738;50.422;18.758;2023-05-09T07:22:23;99347.41;;;14.10;57.24
37904;BME280;23738;50.422;18.758;2023-05-09T07:24:52;99348.95;;;14.20;56.06
37904;BME280;23738;50.422;18.758;2023-05-09T07:27:22;99345.14;;;14.18;54.46
37904;BME280;23738;50.422;18.758;2023-05-09T07:30:01;99344.52;;;14.18;55.50
37904;BME280;23738;50.422;18.758;2023-05-09T07:32:30;99341.08;;;14.22;54.08
37904;BME280;23738;50.422;18.758;2023-05-09T07:35:00;99336.51;;;14.25;53.93
37904;BME280;23738;50.422;18.758;2023-05-09T07:37:30;99339.05;;;14.34;54.22
37904;BME280;23738;50.422;18.758;2023-05-09T07:40:10;99340.67;;;14.43;54.74
37904;BME280;23738;50.422;18.758;2023-05-09T07:42:40;99336.95;;;14.58;54.58
37904;BME280;23738;50.422;18.758;2023-05-09T07:45:18;99334.89;;;14.75;53.95
37904;BME280;23738;50.422;18.758;2023-05-09T07:47:55;99337.29;;;14.86;53.72
37904;BME280;23738;50.422;18.758;2023-05-09T07:50:25;99336.59;;;14.89;53.66
37904;BME280;23738;50.422;18.758;2023-05-09T07:52:54;99326.34;;;14.96;54.33
37904;BME280;23738;50.422;18.758;2023-05-09T07:55:26;99331.25;;;15.14;53.69
37904;BME280;23738;50.422;18.758;2023-05-09T07:57:55;99330.33;;;15.30;53.64
37904;BME280;23738;50.422;18.758;2023-05-09T08:00:25;99328.16;;;15.38;52.86
37904;BME280;23738;50.422;18.758;2023-05-09T08:03:12;99323.41;;;15.44;52.37
37904;BME280;23738;50.422;18.758;2023-05-09T08:06:01;99330.13;;;15.55;52.29
37904;BME280;23738;50.422;18.758;2023-05-09T08:08:31;99322.42;;;15.66;52.84
37904;BME280;23738;50.422;18.758;2023-05-09T08:11:20;99328.08;;;15.83;51.43
37904;BME280;23738;50.422;18.758;2023-05-09T08:14:09;99324.11;;;15.88;50.91
37904;BME280;23738;50.422;18.758;2023-05-09T08:16:48;99318.52;;;15.96;51.41
37904;BME280;23738;50.422;18.758;2023-05-09T08:19:17;99314.71;;;16.02;49.71
37904;BME280;23738;50.422;18.758;2023-05-09T08:22:08;99312.85;;;16.05;50.81
37904;BME280;23738;50.422;18.758;2023-05-09T08:24:37;99310.69;;;16.14;50.26
37904;BME280;23738;50.422;18.758;2023-05-09T08:27:26;99313.59;;;16.15;49.01
37904;BME280;23738;50.422;18.758;2023-05-09T08:29:55;99311.98;;;16.11;48.81
37904;BME280;23738;50.422;18.758;2023-05-09T08:32:45;99317.17;;;16.08;47.87
37904;BME280;23738;50.422;18.758;2023-05-09T08:35:15;99311.09;;;16.05;47.68
37904;BME280;23738;50.422;18.758;2023-05-09T08:37:44;99307.89;;;16.05;48.32
37904;BME280;23738;50.422;18.758;2023-05-09T08:40:15;99299.83;;;16.18;48.67
37904;BME280;23738;50.422;18.758;2023-05-09T08:42:45;99296.74;;;16.36;49.28
37904;BME280;23738;50.422;18.758;2023-05-09T08:45:16;99283.33;;;16.44;48.65
37904;BME280;23738;50.422;18.758;2023-05-09T08:48:11;99288.98;;;16.54;47.15
37904;BME280;23738;50.422;18.758;2023-05-09T08:51:01;99283.57;;;16.46;47.24
37904;BME280;23738;50.422;18.758;2023-05-09T08:53:47;99285.63;;;16.54;48.71
37904;BME280;23738;50.422;18.758;2023-05-09T08:56:17;99278.05;;;16.68;47.74
37904;BME280;23738;50.422;18.758;2023-05-09T08:58:47;99279.02;;;16.82;47.83
37904;BME280;23738;50.422;18.758;2023-05-09T09:01:17;99281.30;;;16.94;46.60
37904;BME280;23738;50.422;18.758;2023-05-09T09:03:51;99276.33;;;16.95;46.84
37904;BME280;23738;50.422;18.758;2023-05-09T12:10:40;99114.36;;;19.56;39.43
37904;BME280;23738;50.422;18.758;2023-05-09T12:13:09;99110.31;;;19.68;39.36
37904;BME280;23738;50.422;18.758;2023-05-09T12:15:37;99105.15;;;19.87;39.31
37904;BME280;23738;50.422;18.758;2023-05-09T12:18:06;99100.60;;;19.99;38.68
37904;BME280;23738;50.422;18.758;2023-05-09T12:20:41;99104.05;;;19.99;37.90
37904;BME280;23738;50.422;18.758;2023-05-09T12:23:10;99105.64;;;19.80;38.31
37904;BME280;23738;50.422;18.758;2023-05-09T12:25:38;99107.10;;;19.61;37.80
37904;BME280;23738;50.422;18.758;2023-05-09T12:28:05;99107.20;;;19.54;37.99
37904;BME280;23738;50.422;18.758;2023-05-09T12:30:33;99105.17;;;19.46;37.73
37904;BME280;23738;50.422;18.758;2023-05-09T12:33:01;99103.41;;;19.37;38.19
37904;BME280;23738;50.422;18.758;2023-05-09T12:35:28;99102.73;;;19.25;37.15
37904;BME280;23738;50.422;18.758;2023-05-09T12:37:56;99092.84;;;19.20;36.77
37904;BME280;23738;50.422;18.758;2023-05-09T12:40:24;99082.77;;;19.08;37.98
37904;BME280;23738;50.422;18.758;2023-05-09T12:42:52;99083.23;;;19.13;38.25
37904;BME280;23738;50.422;18.758;2023-05-09T12:45:20;99081.58;;;19.23;37.90
37904;BME280;23738;50.422;18.758;2023-05-09T12:47:51;99078.02;;;19.28;37.95
37904;BME280;23738;50.422;18.758;2023-05-09T12:50:19;99071.63;;;19.37;38.39
37904;BME280;23738;50.422;18.758;2023-05-09T12:52:50;99065.81;;;19.50;38.15
37904;BME280;23738;50.422;18.758;2023-05-09T12:55:18;99060.11;;;19.64;38.60
37904;BME280;23738;50.422;18.758;2023-05-09T12:57:57;99061.69;;;19.77;37.65
37904;BME280;23738;50.422;18.758;2023-05-09T13:00:24;99066.40;;;19.73;36.01
37904;BME280;23738;50.422;18.758;2023-05-09T13:02:52;99052.70;;;19.61;37.42
37904;BME280;23738;50.422;18.758;2023-05-09T13:05:21;99051.89;;;19.67;38.11
37904;BME280;23738;50.422;18.758;2023-05-09T13:07:49;99044.85;;;19.77;37.50
37904;BME280;23738;50.422;18.758;2023-05-09T13:10:19;99046.60;;;19.75;37.52
37904;BME280;23738;50.422;18.758;2023-05-09T13:12:49;99054.31;;;19.58;36.44
37904;BME280;23738;50.422;18.758;2023-05-09T13:15:18;99054.54;;;19.36;36.54
37904;BME280;23738;50.422;18.758;2023-05-09T13:17:47;99051.70;;;19.24;36.59
37904;BME280;23738;50.422;18.758;2023-05-09T13:20:14;99047.95;;;19.07;36.42
37904;BME280;23738;50.422;18.758;2023-05-09T13:22:43;99039.54;;;18.86;36.90
37904;BME280;23738;50.422;18.758;2023-05-09T13:25:11;99038.55;;;18.88;37.03
37904;BME280;23738;50.422;18.758;2023-05-09T13:27:39;99040.12;;;18.91;36.82
37904;BME280;23738;50.422;18.758;2023-05-09T13:30:08;99039.27;;;18.92;36.61
37904;BME280;23738;50.422;18.758;2023-05-09T13:32:35;99037.39;;;18.95;36.80
37904;BME280;23738;50.422;18.758;2023-05-09T13:35:03;99031.08;;;19.01;37.03
37904;BME280;23738;50.422;18.758;2023-05-09T13:37:33;99034.50;;;18.92;37.18
37904;BME280;23738;50.422;18.758;2023-05-09T13:40:00;99031.88;;;18.82;37.09
37904;BME280;23738;50.422;18.758;2023-05-09T13:42:27;99026.41;;;18.76;36.71
37904;BME280;23738;50.422;18.758;2023-05-09T13:44:54;99028.05;;;18.60;36.92
37904;BME280;23738;50.422;18.758;2023-05-09T13:47:22;99031.62;;;18.48;36.84
37904;BME280;23738;50.422;18.758;2023-05-09T13:49:49;99029.53;;;18.31;36.57
37904;BME280;23738;50.422;18.758;2023-05-09T13:52:18;99029.85;;;18.18;36.76
37904;BME280;23738;50.422;18.758;2023-05-09T13:54:45;99023.95;;;17.98;36.90
37904;BME280;23738;50.422;18.758;2023-05-09T13:57:13;99022.04;;;17.82;37.08
37904;BME280;23738;50.422;18.758;2023-05-09T13:59:40;99014.20;;;17.81;37.09
37904;BME280;23738;50.422;18.758;2023-05-09T14:02:07;99013.03;;;17.91;37.21
37904;BME280;23738;50.422;18.758;2023-05-09T14:04:36;99004.97;;;18.01;37.25
37904;BME280;23738;50.422;18.758;2023-05-09T14:07:03;98998.79;;;18.12;37.42
37904;BME280;23738;50.422;18.758;2023-05-09T14:09:30;98995.02;;;18.25;37.31
37904;BME280;23738;50.422;18.758;2023-05-09T14:12:06;98994.13;;;18.28;37.32
37904;BME280;23738;50.422;18.758;2023-05-09T14:14:33;98989.93;;;18.16;37.09
37904;BME280;23738;50.422;18.758;2023-05-09T14:17:01;98988.82;;;18.09;37.11
37904;BME280;23738;50.422;18.758;2023-05-09T14:19:28;98989.08;;;18.11;37.15
37904;BME280;23738;50.422;18.758;2023-05-09T14:21:56;98986.27;;;18.18;37.28
37904;BME280;23738;50.422;18.758;2023-05-09T14:24:23;98984.77;;;18.28;37.39
37904;BME280;23738;50.422;18.758;2023-05-09T14:26:50;98974.95;;;18.32;36.99
37904;BME280;23738;50.422;18.758;2023-05-09T14:29:18;98974.70;;;18.31;36.57
37904;BME280;23738;50.422;18.758;2023-05-09T14:31:45;98972.77;;;18.25;36.69
37904;BME280;23738;50.422;18.758;2023-05-09T14:34:13;98965.92;;;18.22;37.37
37904;BME280;23738;50.422;18.758;2023-05-09T14:36:40;98964.63;;;18.32;37.43
37904;BME280;23738;50.422;18.758;2023-05-09T14:39:07;98965.28;;;18.42;37.43
37904;BME280;23738;50.422;18.758;2023-05-09T14:41:34;98969.21;;;18.49;36.96
37904;BME280;23738;50.422;18.758;2023-05-09T14:44:01;98969.58;;;18.52;37.02
37904;BME280;23738;50.422;18.758;2023-05-09T14:46:29;98967.51;;;18.53;36.72
37904;BME280;23738;50.422;18.758;2023-05-09T14:48:56;98966.80;;;18.49;36.41
37904;BME280;23738;50.422;18.758;2023-05-09T14:51:29;98962.21;;;18.43;36.71
37904;BME280;23738;50.422;18.758;2023-05-09T14:53:57;98958.34;;;18.40;36.43
37904;BME280;23738;50.422;18.758;2023-05-09T14:56:24;98957.64;;;18.32;36.59
37904;BME280;23738;50.422;18.758;2023-05-09T14:58:52;98952.48;;;18.30;36.95
37904;BME280;23738;50.422;18.758;2023-05-09T15:01:19;98950.04;;;18.35;36.96
37904;BME280;23738;50.422;18.758;2023-05-09T15:03:47;98947.13;;;18.38;36.81
37904;BME280;23738;50.422;18.758;2023-05-09T15:06:14;98945.67;;;18.37;36.54
37904;BME280;23738;50.422;18.758;2023-05-09T15:08:42;98942.48;;;18.31;36.50
37904;BME280;23738;50.422;18.758;2023-05-09T15:11:09;98938.73;;;18.26;36.60
37904;BME280;23738;50.422;18.758;2023-05-09T15:13:36;98939.84;;;18.20;36.57
37904;BME280;23738;50.422;18.758;2023-05-09T15:16:04;98931.81;;;18.14;36.80
37904;BME280;23738;50.422;18.758;2023-05-09T15:18:31;98933.25;;;18.11;36.67
37904;BME280;23738;50.422;18.758;2023-05-09T15:21:00;98921.33;;;18.05;36.61
37904;BME280;23738;50.422;18.758;2023-05-09T15:23:27;98918.47;;;17.98;36.72
37904;BME280;23738;50.422;18.758;2023-05-09T15:25:54;98919.17;;;17.97;36.89
37904;BME280;23738;50.422;18.758;2023-05-09T15:28:22;98916.35;;;17.93;36.77
37904;BME280;23738;50.422;18.758;2023-05-09T15:30:49;98915.92;;;17.86;36.52
37904;BME280;23738;50.422;18.758;2023-05-09T15:33:16;98912.87;;;17.80;36.64
37904;BME280;23738;50.422;18.758;2023-05-09T15:35:44;98907.45;;;17.77;36.78
37904;BME280;23738;50.422;18.758;2023-05-09T15:38:12;98902.27;;;17.74;36.80
37904;BME280;23738;50.422;18.758;2023-05-09T15:40:40;98900.25;;;17.70;36.71
37904;BME280;23738;50.422;18.758;2023-05-09T15:43:07;98901.27;;;17.65;36.56
37904;BME280;23738;50.422;18.758;2023-05-09T15:45:34;98898.54;;;17.58;36.44
37904;BME280;23738;50.422;18.758;2023-05-09T15:48:04;98897.11;;;17.49;36.50
37904;BME280;23738;50.422;18.758;2023-05-09T15:50:32;98901.02;;;17.39;36.38
37904;BME280;23738;50.422;18.758;2023-05-09T15:52:59;98901.94;;;17.32;36.67
37904;BME280;23738;50.422;18.758;2023-05-09T15:55:26;98896.45;;;17.25;36.27
37904;BME280;23738;50.422;18.758;2023-05-09T15:57:53;98896.73;;;17.16;36.56
37904;BME280;23738;50.422;18.758;2023-05-09T16:00:21;98890.39;;;17.08;36.36
37904;BME280;23738;50.422;18.758;2023-05-09T16:02:49;98891.51;;;16.98;36.52
37904;BME280;23738;50.422;18.758;2023-05-09T16:05:17;98885.42;;;16.92;36.29
37904;BME280;23738;50.422;18.758;2023-05-09T16:07:46;98883.23;;;16.85;36.44
37904;BME280;23738;50.422;18.758;2023-05-09T16:10:13;98881.34;;;16.81;36.34
37904;BME280;23738;50.422;18.758;2023-05-09T16:12:41;98876.50;;;16.75;36.43
37904;BME280;23738;50.422;18.758;2023-05-09T16:15:10;98872.30;;;16.69;36.45
37904;BME280;23738;50.422;18.758;2023-05-09T16:17:37;98865.04;;;16.60;36.57
37904;BME280;23738;50.422;18.758;2023-05-09T16:20:06;98863.86;;;16.56;36.92
37904;BME280;23738;50.422;18.758;2023-05-09T16:22:33;98866.43;;;16.52;36.90
37904;BME280;23738;50.422;18.758;2023-05-09T16:25:01;98867.76;;;16.46;36.88
37904;BME280;23738;50.422;18.758;2023-05-09T16:27:28;98863.34;;;16.40;37.14
37904;BME280;23738;50.422;18.758;2023-05-09T16:29:55;98863.31;;;16.36;37.33
37904;BME280;23738;50.422;18.758;2023-05-09T16:32:22;98861.73;;;16.29;37.46
37904;BME280;23738;50.422;18.758;2023-05-09T16:34:49;98861.13;;;16.20;37.37
37904;BME280;23738;50.422;18.758;2023-05-09T16:37:17;98854.75;;;16.11;37.39
37904;BME280;23738;50.422;18.758;2023-05-09T16:39:45;98857.89;;;16.02;37.48
37904;BME280;23738;50.422;18.758;2023-05-09T16:42:12;98857.89;;;15.94;37.37
37904;BME280;23738;50.422;18.758;2023-05-09T16:44:39;98855.23;;;15.85;37.51
37904;BME280;23738;50.422;18.758;2023-05-09T16:47:06;98852.92;;;15.76;37.55
37904;BME280;23738;50.422;18.758;2023-05-09T16:49:33;98842.66;;;15.67;37.80
37904;BME280;23738;50.422;18.758;2023-05-09T16:52:00;98845.03;;;15.62;37.74
37904;BME280;23738;50.422;18.758;2023-05-09T16:54:28;98838.33;;;15.53;37.75
37904;BME280;23738;50.422;18.758;2023-05-09T16:56:56;98833.27;;;15.47;37.79
37904;BME280;23738;50.422;18.758;2023-05-09T16:59:24;98832.61;;;15.41;37.88